createdAt,value
2023-03-24T00:00:21.233Z,26.40
2023-03-24T00:05:21.971Z,24.70
2023-03-24T00:07:54.678Z,25.20
2023-03-24T00:10:22.671Z,25.00
2023-03-24T00:12:50.054Z,25.00
2023-03-24T00:15:20.827Z,23.70
2023-03-24T00:17:51.924Z,24.40
2023-03-24T00:20:20.444Z,24.50
2023-03-24T00:22:50.218Z,23.60
2023-03-24T00:25:18.215Z,22.50
2023-03-24T00:27:44.905Z,22.60
2023-03-24T00:30:12.700Z,22.50
2023-03-24T00:32:41.166Z,22.90
2023-03-24T00:35:15.703Z,22.50
2023-03-24T00:37:43.881Z,23.10
2023-03-24T00:40:13.363Z,22.30
2023-03-24T00:42:40.639Z,22.00
2023-03-24T00:45:08.836Z,21.60
2023-03-24T00:47:38.079Z,21.50
2023-03-24T00:50:10.597Z,20.70
2023-03-24T00:52:37.216Z,20.80
2023-03-24T00:57:36.122Z,20.90
2023-03-24T01:00:16.494Z,21.20
2023-03-24T01:02:45.910Z,20.30
2023-03-24T01:05:14.688Z,20.60
2023-03-24T01:07:42.655Z,20.00
2023-03-24T01:10:12.673Z,20.20
2023-03-24T01:12:40.438Z,19.30
2023-03-24T01:15:12.499Z,19.20
2023-03-24T01:17:39.327Z,19.20
2023-03-24T01:20:10.170Z,18.80
2023-03-24T01:22:39.399Z,19.20
2023-03-24T01:25:08.738Z,19.80
2023-03-24T01:27:36.920Z,19.00
2023-03-24T01:30:05.067Z,20.60
2023-03-24T01:32:33.019Z,19.50
2023-03-24T01:35:03.182Z,20.70
2023-03-24T01:37:30.231Z,24.00
2023-03-24T01:39:57.384Z,21.80
2023-03-24T01:42:26.106Z,19.60
2023-03-24T01:45:00.910Z,21.20
2023-03-24T01:47:27.833Z,18.90
2023-03-24T01:49:58.616Z,19.90
2023-03-24T01:52:32.722Z,18.20
2023-03-24T01:55:11.820Z,19.80
2023-03-24T01:57:43.914Z,18.90
2023-03-24T02:00:12.940Z,19.60
2023-03-24T02:03:17.918Z,19.50
2023-03-24T02:05:50.609Z,20.00
2023-03-24T02:08:23.096Z,18.90
2023-03-24T02:10:50.426Z,19.40
2023-03-24T02:13:17.167Z,22.20
2023-03-24T02:16:03.918Z,22.30
2023-03-24T02:18:44.267Z,21.70
2023-03-24T02:21:24.112Z,20.20
2023-03-24T02:26:40.924Z,18.40
2023-03-24T02:29:18.304Z,19.80
2023-03-24T02:31:53.649Z,18.50
2023-03-24T02:34:51.715Z,19.50
2023-03-24T02:37:40.238Z,20.10
2023-03-24T02:40:19.730Z,20.40
2023-03-24T02:42:59.686Z,19.00
2023-03-24T02:45:37.814Z,18.60
2023-03-24T02:48:17.326Z,19.50
2023-03-24T02:50:51.115Z,18.50
2023-03-24T02:53:40.792Z,19.50
2023-03-24T02:56:52.414Z,19.70
2023-03-24T02:59:37.144Z,19.80
2023-03-24T03:02:12.319Z,20.50
2023-03-24T03:04:49.327Z,21.50
2023-03-24T03:07:24.492Z,19.90
2023-03-24T03:09:56.058Z,20.40
2023-03-24T03:12:22.739Z,19.10
2023-03-24T03:14:58.198Z,18.80
2023-03-24T03:17:30.018Z,18.30
2023-03-24T03:20:07.625Z,17.60
2023-03-24T03:22:53.169Z,16.10
2023-03-24T03:26:43.734Z,16.90
2023-03-24T03:29:18.196Z,17.50
2023-03-24T03:31:51.796Z,16.50
2023-03-24T03:34:29.800Z,16.80
2023-03-24T03:37:18.099Z,15.00
2023-03-24T03:42:21.179Z,15.90
2023-03-24T03:44:57.723Z,15.50
2023-03-24T03:47:26.036Z,15.70
2023-03-24T03:49:54.730Z,16.50
2023-03-24T03:52:24.317Z,15.60
2023-03-24T03:54:52.809Z,16.20
2023-03-24T03:57:20.859Z,14.50
2023-03-24T04:00:13.102Z,15.10
2023-03-24T04:03:02.256Z,14.70
2023-03-24T04:05:37.011Z,14.60
2023-03-24T04:08:25.588Z,14.30
2023-03-24T04:11:22.739Z,15.40
2023-03-24T04:14:23.288Z,14.60
2023-03-24T04:17:39.315Z,15.10
2023-03-24T04:20:12.799Z,15.20
2023-03-24T04:23:03.253Z,14.40
2023-03-24T04:25:45.194Z,16.00
2023-03-24T04:28:26.464Z,14.70
2023-03-24T04:31:23.536Z,15.80
2023-03-24T04:33:53.064Z,15.40
2023-03-24T04:36:28.812Z,14.50
2023-03-24T04:39:28.139Z,15.20
2023-03-24T04:41:58.977Z,14.70
2023-03-24T04:44:28.228Z,14.60
2023-03-24T04:47:27.071Z,14.60
2023-03-24T04:50:11.382Z,15.70
2023-03-24T04:52:45.956Z,16.70
2023-03-24T04:55:33.128Z,16.00
2023-03-24T04:58:04.566Z,15.90
2023-03-24T05:00:33.165Z,15.90
2023-03-24T05:03:01.607Z,14.80
2023-03-24T05:05:33.135Z,15.40
2023-03-24T05:08:02.899Z,14.00
2023-03-24T05:10:31.591Z,15.00
2023-03-24T05:13:04.524Z,15.60
2023-03-24T05:15:45.156Z,14.50
2023-03-24T05:18:34.915Z,16.70
2023-03-24T05:21:03.738Z,17.60
2023-03-24T05:23:32.293Z,15.40
2023-03-24T05:26:05.906Z,16.50
2023-03-24T05:28:36.966Z,17.50
2023-03-24T05:31:05.610Z,16.40
2023-03-24T05:33:48.491Z,18.40
2023-03-24T05:36:19.039Z,18.00
2023-03-24T05:39:05.080Z,18.00
2023-03-24T05:41:42.417Z,19.40
2023-03-24T05:44:11.047Z,18.90
2023-03-24T05:46:41.527Z,18.50
2023-03-24T05:49:09.878Z,18.60
2023-03-24T05:51:47.861Z,19.10
2023-03-24T05:54:16.428Z,20.30
2023-03-24T05:56:46.480Z,21.60
2023-03-24T05:59:34.273Z,21.50
2023-03-24T06:02:11.490Z,21.80
2023-03-24T06:04:57.680Z,21.80
2023-03-24T06:07:30.653Z,20.30
2023-03-24T06:10:03.016Z,21.30
2023-03-24T06:12:38.364Z,19.60
2023-03-24T06:15:07.615Z,21.00
2023-03-24T06:17:46.269Z,19.80
2023-03-24T06:20:24.295Z,20.10
2023-03-24T06:23:18.178Z,19.20
2023-03-24T06:26:04.038Z,19.50
2023-03-24T06:28:34.686Z,20.30
2023-03-24T06:33:49.263Z,18.60
2023-03-24T06:36:17.420Z,18.50
2023-03-24T06:38:46.697Z,16.90
2023-03-24T06:41:18.172Z,18.00
2023-03-24T06:43:48.087Z,17.30
2023-03-24T06:46:17.907Z,18.40
2023-03-24T06:48:47.128Z,18.80
2023-03-24T06:51:19.991Z,19.70
2023-03-24T06:53:48.536Z,20.00
2023-03-24T06:56:20.221Z,19.40
2023-03-24T06:58:53.951Z,19.70
2023-03-24T07:01:49.605Z,21.90
2023-03-24T07:04:27.361Z,20.00
2023-03-24T07:07:34.171Z,19.60
2023-03-24T07:10:22.108Z,18.80
2023-03-24T07:12:51.145Z,22.20
2023-03-24T07:15:19.327Z,21.40
2023-03-24T07:17:55.001Z,21.40
2023-03-24T07:20:47.864Z,21.40
2023-03-24T07:23:21.842Z,21.00
2023-03-24T07:26:08.859Z,21.70
2023-03-24T07:28:39.594Z,21.90
2023-03-24T07:31:10.989Z,21.70
2023-03-24T07:33:40.634Z,22.40
2023-03-24T07:36:09.374Z,23.60
2023-03-24T07:38:41.553Z,23.20
2023-03-24T07:41:12.343Z,22.90
2023-03-24T07:43:43.172Z,21.90
2023-03-24T07:46:25.848Z,23.80
2023-03-24T07:48:56.253Z,22.90
2023-03-24T07:51:25.439Z,22.70
2023-03-24T07:54:12.118Z,22.60
2023-03-24T07:56:45.642Z,24.50
2023-03-24T07:59:13.882Z,21.80
2023-03-24T08:02:02.431Z,23.20
2023-03-24T08:04:45.410Z,23.80
2023-03-24T08:07:55.647Z,21.50
2023-03-24T08:10:30.898Z,23.10
2023-03-24T08:13:02.636Z,23.80
2023-03-24T08:15:30.571Z,21.90
2023-03-24T08:18:02.586Z,22.80
2023-03-24T08:20:34.072Z,21.50
2023-03-24T08:23:05.039Z,20.70
2023-03-24T08:25:33.370Z,21.00
2023-03-24T08:28:01.594Z,19.80
2023-03-24T08:30:30.512Z,21.50
2023-03-24T08:33:00.994Z,23.00
2023-03-24T08:35:34.870Z,21.40
2023-03-24T08:38:06.279Z,22.40
2023-03-24T08:40:43.895Z,20.90
2023-03-24T08:43:15.112Z,20.10
2023-03-24T08:45:43.312Z,20.50
2023-03-24T08:48:12.122Z,21.50
2023-03-24T08:50:41.061Z,20.40
2023-03-24T08:53:09.855Z,19.00
2023-03-24T08:55:41.792Z,20.10
2023-03-24T08:58:15.298Z,21.70
2023-03-24T09:00:44.450Z,20.70
2023-03-24T09:03:14.416Z,20.00
2023-03-24T09:05:44.708Z,22.50
2023-03-24T09:08:14.235Z,21.00
2023-03-24T09:10:42.768Z,18.90
2023-03-24T09:13:12.361Z,19.50
2023-03-24T09:15:46.593Z,19.80
2023-03-24T09:18:16.002Z,20.00
2023-03-24T09:20:45.172Z,20.00
2023-03-24T09:23:13.823Z,19.40
2023-03-24T09:25:52.412Z,20.40
2023-03-24T09:28:21.588Z,19.40
2023-03-24T09:30:50.508Z,19.50
2023-03-24T09:33:19.671Z,21.20
2023-03-24T09:35:59.281Z,19.90
2023-03-24T09:38:28.593Z,20.10
2023-03-24T09:41:02.870Z,21.40
2023-03-24T09:43:33.744Z,20.60
2023-03-24T09:46:02.605Z,20.20
2023-03-24T09:48:35.795Z,18.30
2023-03-24T09:51:05.220Z,18.70
2023-03-24T09:54:06.357Z,19.50
2023-03-24T09:56:36.591Z,18.30
2023-03-24T09:59:07.269Z,17.00
2023-03-24T10:04:04.994Z,18.40
2023-03-24T10:06:42.130Z,17.80
2023-03-24T10:09:36.495Z,18.50
2023-03-24T10:12:05.276Z,16.00
2023-03-24T10:15:17.719Z,18.50
2023-03-24T10:18:10.811Z,16.80
2023-03-24T10:20:47.929Z,17.20
2023-03-24T10:23:37.541Z,15.80
2023-03-24T10:26:15.452Z,15.90
2023-03-24T10:28:48.945Z,15.50
2023-03-24T10:31:17.517Z,17.30
2023-03-24T10:33:45.835Z,15.10
2023-03-24T10:36:18.013Z,15.50
2023-03-24T10:38:51.028Z,14.60
2023-03-24T10:41:21.886Z,13.90
2023-03-24T10:43:54.254Z,13.90
2023-03-24T10:46:24.092Z,14.40
2023-03-24T10:48:54.653Z,14.60
2023-03-24T10:51:27.542Z,13.70
2023-03-24T10:54:32.615Z,14.10
2023-03-24T10:57:04.677Z,14.50
2023-03-24T10:59:36.865Z,11.60
2023-03-24T11:02:11.557Z,14.60
2023-03-24T11:04:43.950Z,14.50
2023-03-24T11:07:21.122Z,14.20
2023-03-24T11:10:11.113Z,13.10
2023-03-24T11:12:41.666Z,14.00
2023-03-24T11:15:21.841Z,14.30
2023-03-24T11:17:58.789Z,14.20
2023-03-24T11:20:37.982Z,14.30
2023-03-24T11:23:18.093Z,13.50
2023-03-24T11:25:50.874Z,13.10
2023-03-24T11:28:23.104Z,12.40
2023-03-24T11:30:53.069Z,12.20
2023-03-24T11:33:35.769Z,13.00
2023-03-24T11:36:32.981Z,12.40
2023-03-24T11:39:10.714Z,13.10
2023-03-24T11:41:41.489Z,14.20
2023-03-24T11:46:47.204Z,11.30
2023-03-24T11:49:16.960Z,11.00
2023-03-24T11:51:46.203Z,11.00
2023-03-24T11:54:15.965Z,11.70
2023-03-24T11:56:54.317Z,10.70
2023-03-24T11:59:32.745Z,10.20
2023-03-24T12:02:19.657Z,11.80
2023-03-24T12:05:29.141Z,10.40
2023-03-24T12:08:09.056Z,10.00
2023-03-24T12:11:03.538Z,10.30
2023-03-24T12:13:41.070Z,10.70
2023-03-24T12:16:31.123Z,9.60
2023-03-24T12:19:25.564Z,9.10
2023-03-24T12:22:34.928Z,9.40
2023-03-24T12:25:23.316Z,8.60
2023-03-24T12:28:12.745Z,8.90
2023-03-24T12:30:50.100Z,9.00
2023-03-24T12:33:40.233Z,9.60
2023-03-24T12:36:19.237Z,8.50
2023-03-24T12:39:10.738Z,9.00
2023-03-24T12:41:45.437Z,9.40
2023-03-24T12:44:32.050Z,9.00
2023-03-24T12:47:37.710Z,8.80
2023-03-24T12:50:27.310Z,9.10
2023-03-24T12:53:08.752Z,8.40
2023-03-24T12:55:38.856Z,8.30
2023-03-24T12:58:30.425Z,8.60
2023-03-24T13:01:13.232Z,8.10
2023-03-24T13:03:55.774Z,7.90
2023-03-24T13:06:32.372Z,8.10
2023-03-24T13:09:13.314Z,7.90
2023-03-24T13:11:48.989Z,7.80
2023-03-24T13:14:21.768Z,7.60
2023-03-24T13:16:49.794Z,7.60
2023-03-24T13:19:23.672Z,7.30
2023-03-24T13:21:52.386Z,7.80
2023-03-24T13:24:21.170Z,6.30
2023-03-24T13:27:25.168Z,6.20
2023-03-24T13:30:02.452Z,5.50
2023-03-24T13:32:43.315Z,6.10
2023-03-24T13:35:16.740Z,6.30
2023-03-24T13:37:50.603Z,5.50
2023-03-24T13:40:24.121Z,5.90
2023-03-24T13:43:00.009Z,5.90
2023-03-24T13:45:43.240Z,6.50
2023-03-24T13:48:23.830Z,6.00
2023-03-24T13:51:00.600Z,6.50
2023-03-24T13:53:39.844Z,6.10
2023-03-24T13:56:08.574Z,5.80
2023-03-24T13:58:50.328Z,5.90
2023-03-24T14:01:40.891Z,6.80
2023-03-24T14:04:28.950Z,5.80
2023-03-24T14:06:59.011Z,5.90
2023-03-24T14:09:29.593Z,6.10
2023-03-24T14:11:58.573Z,5.80
2023-03-24T14:14:34.589Z,6.60
2023-03-24T14:17:05.999Z,6.00
2023-03-24T14:19:40.650Z,6.10
2023-03-24T14:22:30.449Z,5.70
2023-03-24T14:25:01.052Z,5.60
2023-03-24T14:27:36.309Z,6.00
2023-03-24T14:30:11.419Z,6.70
2023-03-24T14:32:46.018Z,5.90
2023-03-24T14:35:30.019Z,6.90
2023-03-24T14:38:23.612Z,6.40
2023-03-24T14:40:56.339Z,6.40
2023-03-24T14:43:27.430Z,6.10
2023-03-24T14:45:59.997Z,6.00
2023-03-24T14:49:05.667Z,5.30
2023-03-24T14:51:41.584Z,5.70
2023-03-24T14:54:16.647Z,5.40
2023-03-24T14:56:47.321Z,6.10
2023-03-24T14:59:48.567Z,4.50
2023-03-24T15:02:40.106Z,6.70
2023-03-24T15:05:14.550Z,6.40
2023-03-24T15:07:42.823Z,7.10
2023-03-24T15:10:18.744Z,6.10
2023-03-24T15:12:48.494Z,6.50
2023-03-24T15:15:18.679Z,6.70
2023-03-24T15:17:47.659Z,7.20
2023-03-24T15:20:35.829Z,7.80
2023-03-24T15:23:07.869Z,7.20
2023-03-24T15:25:37.000Z,7.20
2023-03-24T15:28:09.886Z,7.60
2023-03-24T15:30:38.061Z,6.40
2023-03-24T15:33:06.785Z,7.00
2023-03-24T15:35:35.707Z,6.80
2023-03-24T15:38:04.226Z,7.60
2023-03-24T15:43:44.874Z,7.70
2023-03-24T15:46:23.176Z,8.00
2023-03-24T15:48:51.417Z,7.30
2023-03-24T15:51:19.578Z,7.20
2023-03-24T15:53:55.299Z,7.70
2023-03-24T15:56:36.611Z,7.70
2023-03-24T15:59:14.284Z,7.30
2023-03-24T16:01:45.295Z,7.80
2023-03-24T16:04:18.229Z,7.20
2023-03-24T16:06:53.073Z,7.40
2023-03-24T16:09:27.205Z,7.40
2023-03-24T16:11:56.198Z,7.10
2023-03-24T16:14:29.848Z,7.60
2023-03-24T16:17:00.039Z,7.90
2023-03-24T16:21:57.208Z,8.60
2023-03-24T16:24:26.459Z,8.30
2023-03-24T16:26:55.740Z,8.50
2023-03-24T16:29:26.817Z,8.40
2023-03-24T16:31:57.035Z,8.60
2023-03-24T16:34:25.299Z,8.40
2023-03-24T16:36:54.306Z,8.50
2023-03-24T16:39:25.685Z,8.10
2023-03-24T16:41:54.230Z,8.30
2023-03-24T16:44:23.736Z,8.40
2023-03-24T16:46:54.013Z,8.50
2023-03-24T16:49:23.855Z,8.90
2023-03-24T16:51:54.926Z,8.60
2023-03-24T16:54:25.429Z,9.60
2023-03-24T16:56:54.411Z,9.30
2023-03-24T16:59:22.507Z,9.00
2023-03-24T17:01:53.107Z,9.70
2023-03-24T17:04:22.354Z,9.20
2023-03-24T17:06:55.139Z,9.10
2023-03-24T17:09:24.427Z,10.30
2023-03-24T17:11:56.885Z,8.40
2023-03-24T17:14:32.697Z,9.00
2023-03-24T17:17:02.885Z,9.40
2023-03-24T17:19:31.450Z,12.00
2023-03-24T17:22:06.063Z,12.60
2023-03-24T17:24:36.193Z,10.90
2023-03-24T17:27:04.843Z,10.40
2023-03-24T17:29:33.449Z,10.20
2023-03-24T17:32:02.068Z,10.00
2023-03-24T17:34:45.439Z,10.10
2023-03-24T17:37:14.632Z,10.60
2023-03-24T17:39:43.129Z,9.60
2023-03-24T17:42:14.948Z,10.30
2023-03-24T17:44:44.623Z,13.10
2023-03-24T17:47:13.774Z,11.20
2023-03-24T17:50:02.357Z,11.30
2023-03-24T17:52:41.349Z,12.50
2023-03-24T17:55:10.412Z,12.50
2023-03-24T17:57:38.821Z,12.10
2023-03-24T18:00:11.008Z,12.00
2023-03-24T18:02:39.704Z,10.60
2023-03-24T18:05:08.255Z,13.10
2023-03-24T18:07:36.496Z,11.10
2023-03-24T18:10:06.402Z,12.60
2023-03-24T18:12:38.612Z,12.90
2023-03-24T18:15:07.714Z,11.80
2023-03-24T18:17:36.603Z,16.40
2023-03-24T18:20:11.320Z,18.00
2023-03-24T18:22:41.262Z,14.90
2023-03-24T18:25:13.703Z,16.30
2023-03-24T18:27:45.977Z,15.40
2023-03-24T18:30:14.526Z,11.60
2023-03-24T18:32:42.932Z,14.80
2023-03-24T18:35:16.431Z,10.60
2023-03-24T18:37:45.005Z,14.20
2023-03-24T18:40:15.878Z,12.30
2023-03-24T18:42:45.366Z,11.30
2023-03-24T18:45:17.616Z,12.30
2023-03-24T18:47:46.587Z,11.40
2023-03-24T18:50:15.661Z,12.50
2023-03-24T18:52:46.919Z,13.20
2023-03-24T18:55:18.192Z,10.90
2023-03-24T18:57:46.467Z,12.70
2023-03-24T19:00:15.293Z,13.20
2023-03-24T19:02:43.659Z,12.10
2023-03-24T19:05:12.945Z,12.60
2023-03-24T19:10:11.488Z,10.50
2023-03-24T19:12:39.918Z,12.50
2023-03-24T19:17:42.140Z,13.20
2023-03-24T19:20:12.280Z,11.60
2023-03-24T19:22:41.714Z,10.80
2023-03-24T19:25:10.098Z,12.50
2023-03-24T19:27:49.585Z,11.20
2023-03-24T19:30:18.717Z,10.20
2023-03-24T19:32:47.962Z,11.60
2023-03-24T19:35:16.202Z,9.90
2023-03-24T19:37:45.801Z,11.80
2023-03-24T19:42:46.806Z,10.60
2023-03-24T19:45:16.325Z,11.90
2023-03-24T19:47:45.981Z,12.00
2023-03-24T19:50:15.634Z,11.20
2023-03-24T19:52:46.153Z,13.80
2023-03-24T19:55:14.397Z,10.30
2023-03-24T19:57:42.540Z,13.50
2023-03-24T20:00:14.541Z,13.00
2023-03-24T20:02:42.915Z,13.20
2023-03-24T20:05:11.392Z,14.50
2023-03-24T20:07:39.907Z,10.30
2023-03-24T20:10:08.785Z,10.10
2023-03-24T20:12:38.355Z,14.40
2023-03-24T20:15:07.012Z,13.30
2023-03-24T20:17:39.662Z,13.80
2023-03-24T20:20:10.226Z,15.20
2023-03-24T20:22:42.359Z,17.70
2023-03-24T20:25:13.499Z,19.40
2023-03-24T20:27:47.673Z,17.50
2023-03-24T20:30:17.019Z,18.50
2023-03-24T20:32:47.884Z,19.10
2023-03-24T20:35:18.538Z,14.80
2023-03-24T20:37:46.976Z,17.40
2023-03-24T20:40:15.286Z,16.20
2023-03-24T20:42:43.916Z,15.70
2023-03-24T20:45:11.934Z,17.40
2023-03-24T20:47:39.944Z,17.30
2023-03-24T20:50:11.780Z,16.00
2023-03-24T20:52:47.443Z,19.50
2023-03-24T20:55:35.959Z,17.70
2023-03-24T20:58:10.129Z,15.80
2023-03-24T21:00:46.201Z,18.50
2023-03-24T21:03:14.727Z,17.10
2023-03-24T21:05:42.895Z,18.00
2023-03-24T21:08:11.348Z,17.20
2023-03-24T21:10:45.488Z,18.90
2023-03-24T21:13:17.019Z,21.10
2023-03-24T21:15:45.187Z,19.90
2023-03-24T21:18:17.906Z,22.00
2023-03-24T21:20:55.528Z,21.30
2023-03-24T21:23:24.389Z,18.90
2023-03-24T21:25:53.293Z,20.40
2023-03-24T21:28:21.554Z,20.80
2023-03-24T21:30:53.132Z,19.30
2023-03-24T21:33:23.242Z,21.80
2023-03-24T21:35:51.349Z,19.80
2023-03-24T21:38:24.368Z,19.70
2023-03-24T21:40:58.771Z,20.20
2023-03-24T21:43:30.440Z,19.80
2023-03-24T21:45:58.745Z,22.00
2023-03-24T21:48:28.273Z,20.20
2023-03-24T21:50:56.565Z,21.30
2023-03-24T21:53:26.253Z,21.00
2023-03-24T21:55:56.767Z,18.80
2023-03-24T21:58:25.055Z,20.10
2023-03-24T22:00:54.946Z,19.60
2023-03-24T22:03:25.825Z,20.80
2023-03-24T22:05:54.776Z,20.40
2023-03-24T22:08:26.831Z,21.50
2023-03-24T22:10:58.252Z,19.00
2023-03-24T22:13:27.407Z,20.30
2023-03-24T22:16:02.517Z,20.30
2023-03-24T22:18:32.464Z,19.00
2023-03-24T22:21:06.958Z,20.00
2023-03-24T22:23:38.122Z,17.70
2023-03-24T22:26:08.052Z,21.20
2023-03-24T22:28:42.387Z,20.80
2023-03-24T22:31:17.363Z,16.20
2023-03-24T22:33:47.583Z,20.60
2023-03-24T22:38:44.471Z,18.90
2023-03-24T22:41:12.796Z,19.90
2023-03-24T22:43:42.035Z,20.50
2023-03-24T22:46:10.570Z,19.10
2023-03-24T22:48:40.540Z,18.90
2023-03-24T22:51:09.361Z,19.00
2023-03-24T22:53:42.715Z,20.30
2023-03-24T22:56:12.110Z,18.20
2023-03-24T22:58:40.518Z,17.70
2023-03-24T23:01:10.489Z,18.30
2023-03-24T23:03:38.886Z,17.10
2023-03-24T23:06:15.998Z,17.40
2023-03-24T23:08:45.074Z,18.10
2023-03-24T23:11:13.055Z,17.70
2023-03-24T23:14:06.815Z,17.70
2023-03-24T23:16:38.048Z,18.60
2023-03-24T23:19:09.769Z,16.20
2023-03-24T23:21:39.542Z,17.30
2023-03-24T23:24:07.830Z,18.30
2023-03-24T23:26:37.859Z,17.20
2023-03-24T23:29:07.025Z,15.90
2023-03-24T23:31:36.601Z,15.70
2023-03-24T23:34:07.573Z,16.20
2023-03-24T23:36:36.053Z,17.60
2023-03-24T23:39:06.031Z,16.90
2023-03-24T23:41:35.991Z,16.30
2023-03-24T23:44:05.795Z,16.00
2023-03-24T23:46:34.884Z,16.50
2023-03-24T23:49:03.440Z,15.90
2023-03-24T23:51:31.565Z,15.80
2023-03-24T23:53:59.624Z,17.10
2023-03-24T23:56:30.467Z,17.20
2023-03-24T23:58:58.637Z,17.60
